createdAt,value
2023-02-06T00:01:42.234Z,-6.53
2023-02-06T00:04:10.497Z,-6.59
2023-02-06T00:06:38.810Z,-6.63
2023-02-06T00:09:07.712Z,-6.67
2023-02-06T00:11:35.726Z,-6.70
2023-02-06T00:14:04.450Z,-6.72
2023-02-06T00:16:34.660Z,-6.73
2023-02-06T00:19:03.350Z,-6.75
2023-02-06T00:21:31.733Z,-6.76
2023-02-06T00:24:02.123Z,-6.74
2023-02-06T00:26:31.732Z,-6.70
2023-02-06T00:28:59.914Z,-6.70
2023-02-06T00:31:28.108Z,-6.69
2023-02-06T00:33:56.261Z,-6.69
2023-02-06T00:36:24.424Z,-6.68
2023-02-06T00:38:53.221Z,-6.68
2023-02-06T00:41:21.942Z,-6.68
2023-02-06T00:43:52.544Z,-6.63
2023-02-06T00:46:21.355Z,-6.56
2023-02-06T00:48:49.327Z,-6.57
2023-02-06T00:51:17.644Z,-6.56
2023-02-06T00:53:45.736Z,-6.55
2023-02-06T00:56:14.765Z,-6.57
2023-02-06T00:58:42.801Z,-6.60
2023-02-06T01:01:12.613Z,-6.60
2023-02-06T01:03:40.596Z,-6.62
2023-02-06T01:06:10.699Z,-6.62
2023-02-06T01:08:38.821Z,-6.60
2023-02-06T01:11:21.481Z,-6.63
2023-02-06T01:13:50.180Z,-6.65
2023-02-06T01:16:22.103Z,-6.66
2023-02-06T01:18:51.017Z,-6.63
2023-02-06T01:21:22.805Z,-6.61
2023-02-06T01:23:53.624Z,-6.59
2023-02-06T01:26:24.644Z,-6.56
2023-02-06T01:28:53.793Z,-6.56
2023-02-06T01:31:25.768Z,-6.51
2023-02-06T01:33:55.928Z,-6.46
2023-02-06T01:36:24.431Z,-6.42
2023-02-06T01:38:52.905Z,-6.43
2023-02-06T01:41:23.120Z,-6.42
2023-02-06T01:44:31.628Z,-6.40
2023-02-06T01:46:59.850Z,-6.38
2023-02-06T01:49:35.704Z,-6.37
2023-02-06T01:52:27.208Z,-6.37
2023-02-06T01:55:01.145Z,-6.42
2023-02-06T01:57:30.195Z,-6.45
2023-02-06T02:00:03.246Z,-6.48
2023-02-06T02:02:45.128Z,-6.52
2023-02-06T02:05:13.556Z,-6.54
2023-02-06T02:07:51.211Z,-6.55
2023-02-06T02:10:19.420Z,-6.58
2023-02-06T02:12:47.384Z,-6.57
2023-02-06T02:15:15.452Z,-6.57
2023-02-06T02:17:55.859Z,-6.61
2023-02-06T02:20:39.707Z,-6.65
2023-02-06T02:23:24.524Z,-6.62
2023-02-06T02:26:05.187Z,-6.62
2023-02-06T02:29:07.705Z,-6.61
2023-02-06T02:31:43.125Z,-6.61
2023-02-06T02:34:39.543Z,-6.60
2023-02-06T02:37:36.905Z,-6.57
2023-02-06T02:40:11.336Z,-6.54
2023-02-06T02:42:58.784Z,-6.51
2023-02-06T02:45:40.874Z,-6.51
2023-02-06T02:48:14.478Z,-6.49
2023-02-06T02:50:43.640Z,-6.47
2023-02-06T02:53:13.658Z,-6.45
2023-02-06T02:55:42.792Z,-6.44
2023-02-06T02:58:15.234Z,-6.43
2023-02-06T03:00:56.934Z,-6.43
2023-02-06T03:03:29.081Z,-6.43
2023-02-06T03:06:18.985Z,-6.44
2023-02-06T03:09:23.081Z,-6.44
2023-02-06T03:12:02.312Z,-6.47
2023-02-06T03:14:40.016Z,-6.51
2023-02-06T03:17:18.011Z,-6.52
2023-02-06T03:19:51.865Z,-6.53
2023-02-06T03:22:24.658Z,-6.53
2023-02-06T03:24:54.692Z,-6.54
2023-02-06T03:27:24.021Z,-6.53
2023-02-06T03:29:55.032Z,-6.52
2023-02-06T03:32:32.756Z,-6.52
2023-02-06T03:35:07.328Z,-6.52
2023-02-06T03:37:37.134Z,-6.52
2023-02-06T03:40:07.767Z,-6.51
2023-02-06T03:42:40.880Z,-6.48
2023-02-06T03:45:29.159Z,-6.44
2023-02-06T03:48:02.912Z,-6.40
2023-02-06T03:50:33.135Z,-6.37
2023-02-06T03:53:04.330Z,-6.35
2023-02-06T03:55:32.603Z,-6.34
2023-02-06T03:58:05.328Z,-6.33
2023-02-06T04:00:34.892Z,-6.33
2023-02-06T04:03:04.462Z,-6.32
2023-02-06T04:05:32.611Z,-6.32
2023-02-06T04:08:00.901Z,-6.32
2023-02-06T04:10:29.019Z,-6.31
2023-02-06T04:12:57.522Z,-6.30
2023-02-06T04:15:25.473Z,-6.28
2023-02-06T04:18:00.424Z,-6.28
2023-02-06T04:20:30.082Z,-6.27
2023-02-06T04:22:59.335Z,-6.27
2023-02-06T04:25:27.494Z,-6.24
2023-02-06T04:27:55.523Z,-6.19
2023-02-06T04:30:23.769Z,-6.15
2023-02-06T04:32:52.533Z,-6.09
2023-02-06T04:35:21.198Z,-6.02
2023-02-06T04:37:49.368Z,-5.95
2023-02-06T04:40:17.872Z,-5.85
2023-02-06T04:42:46.847Z,-5.76
2023-02-06T04:45:15.127Z,-5.67
2023-02-06T04:47:43.211Z,-5.61
2023-02-06T04:50:11.366Z,-5.58
2023-02-06T04:52:39.333Z,-5.59
2023-02-06T04:55:07.980Z,-5.60
2023-02-06T04:57:36.090Z,-5.66
2023-02-06T05:00:06.581Z,-5.67
2023-02-06T05:02:39.648Z,-5.70
2023-02-06T05:05:09.727Z,-5.71
2023-02-06T05:07:37.794Z,-5.76
2023-02-06T05:10:06.380Z,-5.78
2023-02-06T05:12:34.552Z,-5.83
2023-02-06T05:15:02.614Z,-5.88
2023-02-06T05:17:30.953Z,-5.92
2023-02-06T05:19:59.375Z,-5.95
2023-02-06T05:22:27.545Z,-5.98
2023-02-06T05:24:55.517Z,-5.99
2023-02-06T05:27:24.824Z,-5.98
2023-02-06T05:29:54.875Z,-5.98
2023-02-06T05:32:25.870Z,-5.94
2023-02-06T05:34:54.286Z,-5.92
2023-02-06T05:37:22.442Z,-5.89
2023-02-06T05:39:50.500Z,-5.84
2023-02-06T05:42:18.770Z,-5.81
2023-02-06T05:44:46.981Z,-5.79
2023-02-06T05:47:15.118Z,-5.76
2023-02-06T05:49:44.419Z,-5.73
2023-02-06T05:52:12.594Z,-5.70
2023-02-06T05:54:40.882Z,-5.68
2023-02-06T05:57:09.364Z,-5.67
2023-02-06T05:59:37.534Z,-5.67
2023-02-06T06:02:06.636Z,-5.68
2023-02-06T06:04:34.761Z,-5.68
2023-02-06T06:07:02.861Z,-5.70
2023-02-06T06:09:30.831Z,-5.71
2023-02-06T06:11:58.842Z,-5.72
2023-02-06T06:14:27.642Z,-5.72
2023-02-06T06:16:55.669Z,-5.69
2023-02-06T06:19:23.602Z,-5.63
2023-02-06T06:21:51.921Z,-5.60
2023-02-06T06:24:19.961Z,-5.58
2023-02-06T06:26:47.977Z,-5.52
2023-02-06T06:29:16.125Z,-5.46
2023-02-06T06:31:44.548Z,-5.41
2023-02-06T06:34:12.578Z,-5.34
2023-02-06T06:36:40.774Z,-5.23
2023-02-06T06:39:08.707Z,-5.13
2023-02-06T06:41:36.942Z,-5.03
2023-02-06T06:44:05.178Z,-4.96
2023-02-06T06:46:33.543Z,-4.92
2023-02-06T06:49:01.764Z,-4.88
2023-02-06T06:51:30.314Z,-4.84
2023-02-06T06:53:58.465Z,-4.84
2023-02-06T06:56:27.250Z,-4.80
2023-02-06T06:58:55.846Z,-4.78
2023-02-06T07:01:23.835Z,-4.75
2023-02-06T07:03:52.594Z,-4.71
2023-02-06T07:06:20.869Z,-4.66
2023-02-06T07:08:48.834Z,-4.63
2023-02-06T07:11:18.316Z,-4.56
2023-02-06T07:13:46.333Z,-4.45
2023-02-06T07:16:14.431Z,-4.31
2023-02-06T07:18:43.282Z,-4.14
2023-02-06T07:21:11.854Z,-4.09
2023-02-06T07:23:40.333Z,-4.03
2023-02-06T07:26:08.616Z,-3.96
2023-02-06T07:28:37.396Z,-3.91
2023-02-06T07:31:07.072Z,-3.88
2023-02-06T07:33:35.704Z,-3.86
2023-02-06T07:36:04.311Z,-3.90
2023-02-06T07:38:32.573Z,-4.01
2023-02-06T07:41:02.737Z,-4.06
2023-02-06T07:43:31.656Z,-4.08
2023-02-06T07:46:01.531Z,-4.12
2023-02-06T07:48:30.155Z,-4.15
2023-02-06T07:51:05.463Z,-4.15
2023-02-06T07:53:34.388Z,-4.12
2023-02-06T07:56:03.076Z,-4.09
2023-02-06T07:58:31.043Z,-3.99
2023-02-06T08:01:04.930Z,-3.87
2023-02-06T08:03:34.250Z,-3.85
2023-02-06T08:06:08.422Z,-3.91
2023-02-06T08:08:36.637Z,-3.86
2023-02-06T08:11:06.905Z,-3.81
2023-02-06T08:13:35.491Z,-3.75
2023-02-06T08:16:08.917Z,-3.72
2023-02-06T08:18:38.032Z,-3.66
2023-02-06T08:21:09.792Z,-3.64
2023-02-06T08:23:38.787Z,-3.57
2023-02-06T08:26:18.227Z,-3.46
2023-02-06T08:28:49.619Z,-3.35
2023-02-06T08:31:26.534Z,-3.21
2023-02-06T08:33:55.452Z,-3.10
2023-02-06T08:36:24.849Z,-3.01
2023-02-06T08:38:53.374Z,-2.86
2023-02-06T08:41:30.889Z,-2.69
2023-02-06T08:44:00.794Z,-2.50
2023-02-06T08:46:31.811Z,-2.39
2023-02-06T08:49:04.011Z,-2.25
2023-02-06T08:51:33.648Z,-2.15
2023-02-06T08:54:04.612Z,-2.05
2023-02-06T08:56:34.437Z,-1.95
2023-02-06T08:59:04.134Z,-1.94
2023-02-06T09:01:34.278Z,-1.94
2023-02-06T09:04:09.400Z,-1.96
2023-02-06T09:06:43.206Z,-1.96
2023-02-06T09:09:12.790Z,-1.97
2023-02-06T09:11:41.623Z,-2.02
2023-02-06T09:14:14.928Z,-1.93
2023-02-06T09:16:43.647Z,-1.82
2023-02-06T09:19:12.224Z,-1.73
2023-02-06T09:21:40.601Z,-1.70
2023-02-06T09:24:09.671Z,-1.67
2023-02-06T09:26:53.417Z,-1.67
2023-02-06T09:29:25.931Z,-1.65
2023-02-06T09:31:53.980Z,-1.66
2023-02-06T09:34:21.996Z,-1.67
2023-02-06T09:36:50.320Z,-1.62
2023-02-06T09:39:18.598Z,-1.52
2023-02-06T09:41:51.416Z,-1.40
2023-02-06T09:44:22.117Z,-1.30
2023-02-06T09:47:02.787Z,-1.21
2023-02-06T09:50:02.941Z,-1.16
2023-02-06T09:52:55.038Z,-1.14
2023-02-06T09:55:38.091Z,-1.18
2023-02-06T09:58:31.040Z,-1.21
2023-02-06T10:01:08.430Z,-1.15
2023-02-06T10:03:50.158Z,-1.04
2023-02-06T10:06:24.306Z,-1.04
2023-02-06T10:09:37.434Z,-1.10
2023-02-06T10:12:14.828Z,-1.16
2023-02-06T10:14:50.914Z,-1.23
2023-02-06T10:17:28.113Z,-1.35
2023-02-06T10:19:59.532Z,-1.47
2023-02-06T10:22:47.080Z,-1.60
2023-02-06T10:25:29.569Z,-1.68
2023-02-06T10:28:02.468Z,-1.79
2023-02-06T10:31:09.602Z,-1.90
2023-02-06T10:34:21.560Z,-1.98
2023-02-06T10:37:00.252Z,-2.00
2023-02-06T10:40:05.491Z,-1.96
2023-02-06T10:43:04.960Z,-1.93
2023-02-06T10:45:51.972Z,-1.93
2023-02-06T10:48:39.278Z,-1.89
2023-02-06T10:51:19.017Z,-1.84
2023-02-06T10:53:52.257Z,-1.80
2023-02-06T10:56:28.955Z,-1.75
2023-02-06T10:59:04.903Z,-1.75
2023-02-06T11:01:38.569Z,-1.77
2023-02-06T11:04:21.012Z,-1.76
2023-02-06T11:06:49.698Z,-1.76
2023-02-06T11:09:17.667Z,-1.78
2023-02-06T11:11:51.477Z,-1.80
2023-02-06T11:14:25.309Z,-1.81
2023-02-06T11:16:54.069Z,-1.84
2023-02-06T11:19:36.163Z,-1.86
2023-02-06T11:22:07.510Z,-1.85
2023-02-06T11:24:37.449Z,-1.82
2023-02-06T11:27:22.978Z,-1.77
2023-02-06T11:29:52.263Z,-1.67
2023-02-06T11:32:38.015Z,-1.56
2023-02-06T11:35:28.287Z,-1.45
2023-02-06T11:38:13.558Z,-1.39
2023-02-06T11:40:42.260Z,-1.34
2023-02-06T11:43:16.378Z,-1.28
2023-02-06T11:45:47.368Z,-1.25
2023-02-06T11:48:38.420Z,-1.21
2023-02-06T11:51:08.260Z,-1.17
2023-02-06T11:53:38.251Z,-1.14
2023-02-06T11:56:16.143Z,-1.10
2023-02-06T11:58:45.659Z,-1.05
2023-02-06T12:01:21.070Z,-1.01
2023-02-06T12:03:56.510Z,-0.96
2023-02-06T12:06:32.598Z,-0.91
2023-02-06T12:09:04.075Z,-0.85
2023-02-06T12:11:58.553Z,-0.77
2023-02-06T12:14:51.590Z,-0.69
2023-02-06T12:17:28.330Z,-0.58
2023-02-06T12:20:03.527Z,-0.50
2023-02-06T12:22:38.878Z,-0.47
2023-02-06T12:25:24.745Z,-0.45
2023-02-06T12:27:58.244Z,-0.43
2023-02-06T12:30:40.742Z,-0.46
2023-02-06T12:33:23.548Z,-0.48
2023-02-06T12:36:03.522Z,-0.48
2023-02-06T12:38:40.696Z,-0.47
2023-02-06T12:41:23.808Z,-0.52
2023-02-06T12:44:19.653Z,-0.49
2023-02-06T12:46:57.370Z,-0.34
2023-02-06T12:49:42.221Z,-0.15
2023-02-06T12:52:17.540Z,0.05
2023-02-06T12:54:59.623Z,0.25
2023-02-06T12:57:31.654Z,0.43
2023-02-06T13:00:18.955Z,0.58
2023-02-06T13:03:24.768Z,0.74
2023-02-06T13:06:04.017Z,0.85
2023-02-06T13:08:47.331Z,0.80
2023-02-06T13:11:21.454Z,0.61
2023-02-06T13:13:50.253Z,0.48
2023-02-06T13:16:19.237Z,0.37
2023-02-06T13:18:52.691Z,0.30
2023-02-06T13:21:32.371Z,0.29
2023-02-06T13:24:03.535Z,0.31
2023-02-06T13:26:53.102Z,0.34
2023-02-06T13:29:26.861Z,0.42
2023-02-06T13:32:12.610Z,0.43
2023-02-06T13:34:43.406Z,0.42
2023-02-06T13:37:26.641Z,0.42
2023-02-06T13:40:22.414Z,0.43
2023-02-06T13:43:05.990Z,0.50
2023-02-06T13:45:37.008Z,0.55
2023-02-06T13:48:14.639Z,0.57
2023-02-06T13:50:54.583Z,0.61
2023-02-06T13:54:03.311Z,0.62
2023-02-06T13:56:46.988Z,0.58
2023-02-06T13:59:23.158Z,0.57
2023-02-06T14:01:56.571Z,0.50
2023-02-06T14:04:28.730Z,0.44
2023-02-06T14:07:35.339Z,0.35
2023-02-06T14:10:38.853Z,0.24
2023-02-06T14:13:24.359Z,0.08
2023-02-06T14:16:26.947Z,-0.05
2023-02-06T14:19:04.641Z,-0.22
2023-02-06T14:21:58.880Z,-0.36
2023-02-06T14:24:54.533Z,-0.49
2023-02-06T14:27:32.031Z,-0.63
2023-02-06T14:30:38.272Z,-0.72
2023-02-06T14:33:34.066Z,-0.80
2023-02-06T14:36:12.820Z,-0.87
2023-02-06T14:38:59.292Z,-0.94
2023-02-06T14:41:30.326Z,-0.97
2023-02-06T14:43:59.880Z,-1.01
2023-02-06T14:46:29.416Z,-1.04
2023-02-06T14:48:59.688Z,-1.05
2023-02-06T14:51:38.241Z,-1.08
2023-02-06T14:54:27.085Z,-1.10
2023-02-06T14:57:00.489Z,-1.14
2023-02-06T14:59:29.468Z,-1.14
2023-02-06T15:02:12.282Z,-1.16
2023-02-06T15:04:47.772Z,-1.20
2023-02-06T15:07:35.422Z,-1.23
2023-02-06T15:10:18.390Z,-1.26
2023-02-06T15:12:53.826Z,-1.26
2023-02-06T15:15:24.935Z,-1.26
2023-02-06T15:18:14.682Z,-1.27
2023-02-06T15:20:45.296Z,-1.25
2023-02-06T15:23:57.243Z,-1.22
2023-02-06T15:26:25.546Z,-1.21
2023-02-06T15:28:58.817Z,-1.22
2023-02-06T15:31:28.754Z,-1.28
2023-02-06T15:34:01.511Z,-1.36
2023-02-06T15:36:38.633Z,-1.47
2023-02-06T15:39:09.682Z,-1.60
2023-02-06T15:41:41.083Z,-1.71
2023-02-06T15:44:17.803Z,-1.82
2023-02-06T15:46:48.422Z,-1.94
2023-02-06T15:49:37.548Z,-2.03
2023-02-06T15:52:06.029Z,-2.14
2023-02-06T15:54:34.534Z,-2.26
2023-02-06T15:57:04.838Z,-2.38
2023-02-06T15:59:37.021Z,-2.48
2023-02-06T16:02:05.980Z,-2.57
2023-02-06T16:04:39.848Z,-2.63
2023-02-06T16:07:19.767Z,-2.71
2023-02-06T16:10:12.447Z,-2.81
2023-02-06T16:12:43.522Z,-2.92
2023-02-06T16:15:27.249Z,-2.99
2023-02-06T16:17:56.767Z,-3.06
2023-02-06T16:20:37.274Z,-3.12
2023-02-06T16:23:27.159Z,-3.17
2023-02-06T16:26:17.423Z,-3.22
2023-02-06T16:29:03.022Z,-3.26
2023-02-06T16:31:35.057Z,-3.28
2023-02-06T16:34:29.661Z,-3.28
2023-02-06T16:36:57.828Z,-3.28
2023-02-06T16:39:25.823Z,-3.28
2023-02-06T16:41:54.272Z,-3.25
2023-02-06T16:44:22.347Z,-3.24
2023-02-06T16:46:50.345Z,-3.24
2023-02-06T16:49:21.777Z,-3.25
2023-02-06T16:51:53.664Z,-3.28
2023-02-06T16:54:32.077Z,-3.30
2023-02-06T16:57:11.425Z,-3.34
2023-02-06T16:59:39.482Z,-3.42
2023-02-06T17:02:14.668Z,-3.47
2023-02-06T17:04:42.792Z,-3.52
2023-02-06T17:07:23.137Z,-3.58
2023-02-06T17:09:54.077Z,-3.62
2023-02-06T17:12:22.984Z,-3.68
2023-02-06T17:14:51.111Z,-3.75
2023-02-06T17:17:20.958Z,-3.81
2023-02-06T17:19:50.805Z,-3.85
2023-02-06T17:22:19.117Z,-3.90
2023-02-06T17:24:47.491Z,-3.95
2023-02-06T17:27:20.070Z,-3.99
2023-02-06T17:29:49.606Z,-4.04
2023-02-06T17:32:22.307Z,-4.06
2023-02-06T17:34:54.349Z,-4.08
2023-02-06T17:37:22.595Z,-4.08
2023-02-06T17:39:52.310Z,-4.07
2023-02-06T17:42:22.191Z,-4.05
2023-02-06T17:44:50.722Z,-4.03
2023-02-06T17:47:18.977Z,-4.03
2023-02-06T17:49:47.251Z,-4.04
2023-02-06T17:52:15.732Z,-4.06
2023-02-06T17:54:44.801Z,-4.08
2023-02-06T17:57:13.720Z,-4.12
2023-02-06T17:59:42.106Z,-4.14
2023-02-06T18:02:14.855Z,-4.15
2023-02-06T18:04:43.156Z,-4.18
2023-02-06T18:07:11.226Z,-4.21
2023-02-06T18:09:41.768Z,-4.26
2023-02-06T18:12:10.131Z,-4.31
2023-02-06T18:14:39.859Z,-4.36
2023-02-06T18:17:08.750Z,-4.40
2023-02-06T18:19:42.302Z,-4.43
2023-02-06T18:22:13.421Z,-4.46
2023-02-06T18:24:41.759Z,-4.49
2023-02-06T18:27:10.776Z,-4.53
2023-02-06T18:29:49.420Z,-4.58
2023-02-06T18:32:19.117Z,-4.60
2023-02-06T18:34:47.698Z,-4.61
2023-02-06T18:37:16.259Z,-4.61
2023-02-06T18:39:44.530Z,-4.58
2023-02-06T18:42:31.772Z,-4.57
2023-02-06T18:44:59.904Z,-4.53
2023-02-06T18:47:28.073Z,-4.51
2023-02-06T18:49:56.025Z,-4.51
2023-02-06T18:52:24.327Z,-4.52
2023-02-06T18:54:52.389Z,-4.53
2023-02-06T18:57:20.463Z,-4.58
2023-02-06T18:59:49.042Z,-4.63
2023-02-06T19:02:17.420Z,-4.68
2023-02-06T19:04:45.738Z,-4.74
2023-02-06T19:07:13.981Z,-4.79
2023-02-06T19:09:42.357Z,-4.83
2023-02-06T19:12:10.544Z,-4.87
2023-02-06T19:14:40.206Z,-4.92
2023-02-06T19:17:08.424Z,-4.97
2023-02-06T19:19:36.589Z,-5.01
2023-02-06T19:22:04.658Z,-5.04
2023-02-06T19:24:32.757Z,-5.08
2023-02-06T19:27:02.201Z,-5.10
2023-02-06T19:29:36.145Z,-5.14
2023-02-06T19:32:06.721Z,-5.15
2023-02-06T19:34:37.201Z,-5.14
2023-02-06T19:37:07.734Z,-5.14
2023-02-06T19:39:37.247Z,-5.12
2023-02-06T19:42:07.113Z,-5.07
2023-02-06T19:44:35.855Z,-5.03
2023-02-06T19:47:04.352Z,-5.05
2023-02-06T19:49:32.765Z,-5.08
2023-02-06T19:52:01.618Z,-5.12
2023-02-06T19:54:29.569Z,-5.12
2023-02-06T19:56:57.576Z,-5.14
2023-02-06T19:59:27.830Z,-5.17
2023-02-06T20:02:02.974Z,-5.21
2023-02-06T20:04:34.692Z,-5.27
2023-02-06T20:07:03.139Z,-5.32
2023-02-06T20:09:31.819Z,-5.38
2023-02-06T20:12:00.485Z,-5.44
2023-02-06T20:14:29.114Z,-5.51
2023-02-06T20:16:57.219Z,-5.59
2023-02-06T20:19:27.948Z,-5.64
2023-02-06T20:21:59.037Z,-5.69
2023-02-06T20:24:30.202Z,-5.73
2023-02-06T20:27:01.492Z,-5.74
2023-02-06T20:29:33.040Z,-5.73
2023-02-06T20:32:01.565Z,-5.72
2023-02-06T20:34:29.865Z,-5.68
2023-02-06T20:36:58.703Z,-5.70
2023-02-06T20:39:27.820Z,-5.71
2023-02-06T20:41:56.458Z,-5.73
2023-02-06T20:44:24.716Z,-5.74
2023-02-06T20:46:53.017Z,-5.78
2023-02-06T20:49:24.400Z,-5.83
2023-02-06T20:51:52.900Z,-5.89
2023-02-06T20:54:21.959Z,-5.90
2023-02-06T20:56:50.140Z,-5.93
2023-02-06T20:59:20.046Z,-5.99
2023-02-06T21:01:48.625Z,-6.04
2023-02-06T21:04:18.181Z,-6.08
2023-02-06T21:06:48.767Z,-6.11
2023-02-06T21:09:18.061Z,-6.16
2023-02-06T21:11:48.442Z,-6.18
2023-02-06T21:14:17.695Z,-6.19
2023-02-06T21:16:46.799Z,-6.23
2023-02-06T21:19:17.332Z,-6.25
2023-02-06T21:21:46.297Z,-6.28
2023-02-06T21:24:16.935Z,-6.31
2023-02-06T21:26:45.224Z,-6.34
2023-02-06T21:29:15.015Z,-6.34
2023-02-06T21:31:43.454Z,-6.35
2023-02-06T21:34:14.967Z,-6.35
2023-02-06T21:36:44.263Z,-6.33
2023-02-06T21:39:22.269Z,-6.30
2023-02-06T21:41:56.778Z,-6.28
2023-02-06T21:44:25.411Z,-6.28
2023-02-06T21:46:54.153Z,-6.27
2023-02-06T21:49:23.460Z,-6.28
2023-02-06T21:51:53.367Z,-6.31
2023-02-06T21:54:22.619Z,-6.31
2023-02-06T21:56:51.725Z,-6.36
2023-02-06T21:59:19.736Z,-6.39
2023-02-06T22:01:47.750Z,-6.41
2023-02-06T22:04:15.871Z,-6.45
2023-02-06T22:06:44.158Z,-6.48
2023-02-06T22:09:16.540Z,-6.49
2023-02-06T22:11:44.694Z,-6.52
2023-02-06T22:14:17.818Z,-6.55
2023-02-06T22:16:46.996Z,-6.60
2023-02-06T22:19:16.929Z,-6.65
2023-02-06T22:21:46.021Z,-6.70
2023-02-06T22:24:14.060Z,-6.74
2023-02-06T22:26:43.362Z,-6.78
2023-02-06T22:29:14.860Z,-6.79
2023-02-06T22:31:44.878Z,-6.77
2023-02-06T22:34:18.484Z,-6.73
2023-02-06T22:36:47.316Z,-6.70
2023-02-06T22:39:15.693Z,-6.66
2023-02-06T22:41:45.683Z,-6.64
2023-02-06T22:44:16.822Z,-6.64
2023-02-06T22:46:48.505Z,-6.63
2023-02-06T22:49:17.456Z,-6.62
2023-02-06T22:51:46.087Z,-6.62
2023-02-06T22:54:15.087Z,-6.61
2023-02-06T22:56:44.102Z,-6.62
2023-02-06T22:59:21.739Z,-6.62
2023-02-06T23:02:30.795Z,-6.63
2023-02-06T23:04:59.272Z,-6.66
2023-02-06T23:07:27.655Z,-6.68
2023-02-06T23:09:55.843Z,-6.70
2023-02-06T23:12:23.796Z,-6.73
2023-02-06T23:14:51.867Z,-6.73
2023-02-06T23:17:19.943Z,-6.71
2023-02-06T23:19:48.114Z,-6.67
2023-02-06T23:22:16.184Z,-6.59
2023-02-06T23:24:44.458Z,-6.48
2023-02-06T23:27:12.633Z,-6.38
2023-02-06T23:29:40.705Z,-6.27
2023-02-06T23:32:08.779Z,-6.15
2023-02-06T23:34:38.534Z,-6.02
2023-02-06T23:37:07.070Z,-5.88
2023-02-06T23:39:35.348Z,-5.74
2023-02-06T23:42:03.437Z,-5.59
2023-02-06T23:44:31.685Z,-5.45
2023-02-06T23:46:59.858Z,-5.28
2023-02-06T23:49:27.838Z,-5.15
2023-02-06T23:51:56.109Z,-5.04
2023-02-06T23:54:24.185Z,-4.95
2023-02-06T23:56:52.246Z,-4.88
2023-02-06T23:59:20.321Z,-4.82
